Time;durP1;ratioP1;P1;durP2;ratioP2;P2;SDS_P1;SDS_P2;PMS_P1;PMS_P2;Temp;Humidity;BMP_temperature;BMP_pressure;BME280_temperature;BME280_humidity;BME280_pressure;Samples;Min_cycle;Max_cycle;Signal;HPM_P1;HPM_P2
2023/11/06 00:01:49;;;;;;;27.88;10.60;;;30.50;26.10;;;;;;4970838;28;20019;-65
2023/11/06 00:04:16;;;;;;;22.05;9.23;;;30.40;26.30;;;;;;4970721;28;20035;-65
2023/11/06 00:06:43;;;;;;;19.85;6.68;;;30.30;26.10;;;;;;4971274;28;20506;-66
2023/11/06 00:09:10;;;;;;;19.23;7.00;;;30.20;26.30;;;;;;4969299;28;20057;-62
2023/11/06 00:11:36;;;;;;;18.27;6.63;;;30.10;26.40;;;;;;4970404;28;20135;-62
2023/11/06 00:14:03;;;;;;;25.60;7.03;;;29.90;26.70;;;;;;4970362;28;20046;-65
2023/11/06 00:16:29;;;;;;;19.25;7.05;;;29.80;26.90;;;;;;4970431;28;20080;-63
2023/11/06 00:18:56;;;;;;;23.70;7.03;;;29.70;27.10;;;;;;4968501;28;20101;-64
2023/11/06 00:21:23;;;;;;;22.45;6.95;;;29.70;27.60;;;;;;4968307;28;20053;-64
2023/11/06 00:23:49;;;;;;;26.65;6.88;;;29.60;28.00;;;;;;4969790;28;20044;-65
2023/11/06 00:26:16;;;;;;;28.98;7.20;;;29.40;28.70;;;;;;4970009;28;20556;-63
2023/11/06 00:28:45;;;;;;;26.63;7.03;;;29.20;29.40;;;;;;4969831;28;20403;-65
2023/11/06 00:31:12;;;;;;;30.38;6.72;;;29.00;29.70;;;;;;4969969;28;20073;-63
2023/11/06 00:33:42;;;;;;;32.45;6.65;;;28.80;30.20;;;;;;4969441;28;20053;-64
2023/11/06 00:36:37;;;;;;;34.22;7.28;;;28.60;31.00;;;;;;4969969;28;20058;-63
2023/11/06 00:39:05;;;;;;;36.28;6.45;;;28.40;31.10;;;;;;4949464;28;20154;-64
2023/11/06 00:41:32;;;;;;;39.53;7.13;;;28.20;31.40;;;;;;4949820;28;20131;-62
2023/11/06 00:43:58;;;;;;;16.85;5.65;;;28.00;32.00;;;;;;4946893;28;20099;-65
2023/11/06 00:46:25;;;;;;;21.75;5.90;;;27.80;32.30;;;;;;4948188;28;20119;-64
2023/11/06 00:48:51;;;;;;;24.42;6.00;;;27.60;32.60;;;;;;4933277;28;20173;-62
2023/11/06 00:51:18;;;;;;;23.88;6.40;;;27.40;32.90;;;;;;4948989;28;20051;-64
2023/11/06 00:53:44;;;;;;;34.15;7.25;;;27.30;33.20;;;;;;4947139;28;20142;-64
2023/11/06 00:56:11;;;;;;;43.97;7.93;;;27.20;33.80;;;;;;4951656;28;20067;-62
2023/11/06 00:58:37;;;;;;;45.53;8.60;;;27.10;34.10;;;;;;4961644;28;20064;-65
2023/11/06 01:01:04;;;;;;;46.58;8.43;;;26.90;34.10;;;;;;4948699;28;20078;-65
2023/11/06 01:03:32;;;;;;;44.97;9.77;;;26.70;34.10;;;;;;4947566;28;20067;-62
2023/11/06 01:05:59;;;;;;;32.78;8.82;;;26.50;35.10;;;;;;4958763;28;20542;-65
2023/11/06 01:08:26;;;;;;;29.17;8.85;;;26.40;34.70;;;;;;4957845;28;20104;-63
2023/11/06 01:10:52;;;;;;;38.83;9.25;;;26.20;34.70;;;;;;4949426;28;20150;-65
2023/11/06 01:13:19;;;;;;;44.50;10.73;;;26.10;35.10;;;;;;4950294;28;20068;-62
2023/11/06 01:15:46;;;;;;;27.45;9.60;;;26.00;35.40;;;;;;4960995;28;20062;-63
2023/11/06 01:18:12;;;;;;;40.53;10.75;;;25.90;35.60;;;;;;4966931;28;20075;-64
2023/11/06 01:20:40;;;;;;;47.95;11.35;;;25.80;36.10;;;;;;4969317;28;20070;-64
2023/11/06 01:23:07;;;;;;;38.92;10.68;;;25.70;36.50;;;;;;4968193;28;20070;-63
2023/11/06 01:25:34;;;;;;;34.13;10.90;;;25.50;36.80;;;;;;4969078;28;20090;-64
2023/11/06 01:28:03;;;;;;;34.95;11.45;;;25.40;36.80;;;;;;4969227;28;20060;-62
2023/11/06 01:30:31;;;;;;;54.20;12.32;;;25.30;37.00;;;;;;4969599;28;20077;-64
2023/11/06 01:32:57;;;;;;;43.15;11.48;;;25.20;37.20;;;;;;4968842;28;20061;-64
2023/11/06 01:35:26;;;;;;;57.47;11.65;;;25.10;37.40;;;;;;4967445;28;20065;-63
2023/11/06 01:37:52;;;;;;;39.70;10.93;;;25.00;37.60;;;;;;4969805;28;20078;-63
2023/11/06 01:40:19;;;;;;;44.53;11.70;;;24.90;37.80;;;;;;4967531;28;20084;-64
2023/11/06 01:42:46;;;;;;;57.28;11.52;;;24.80;38.00;;;;;;4969011;28;20170;-64
2023/11/06 01:45:13;;;;;;;43.85;13.23;;;24.70;38.30;;;;;;4967318;28;20065;-65
2023/11/06 01:47:40;;;;;;;58.95;13.32;;;24.70;38.20;;;;;;4968646;28;20556;-65
2023/11/06 01:50:07;;;;;;;43.50;11.80;;;24.50;38.30;;;;;;4968104;28;20424;-64
2023/11/06 01:52:35;;;;;;;57.38;12.88;;;24.50;38.60;;;;;;4972885;28;20062;-65
2023/11/06 01:55:02;;;;;;;52.60;12.63;;;24.40;38.70;;;;;;4971182;28;20519;-64
2023/11/06 01:57:28;;;;;;;44.75;13.48;;;24.30;39.20;;;;;;4971084;28;20066;-61
2023/11/06 01:59:56;;;;;;;57.53;14.35;;;24.30;39.30;;;;;;4972500;28;20079;-65
2023/11/06 02:02:27;;;;;;;49.88;13.45;;;24.20;39.60;;;;;;4971298;28;20150;-66
2023/11/06 02:04:53;;;;;;;54.95;14.10;;;24.10;40.20;;;;;;4972002;28;20070;-62
2023/11/06 02:07:20;;;;;;;43.95;15.02;;;24.10;40.40;;;;;;4972253;28;20144;-62
2023/11/06 02:09:47;;;;;;;67.18;18.60;;;24.00;41.10;;;;;;4971805;28;20093;-60
2023/11/06 02:12:14;;;;;;;55.83;16.58;;;23.90;40.90;;;;;;4970872;28;20159;-64
2023/11/06 02:14:51;;;;;;;63.58;15.52;;;23.90;41.40;;;;;;4972823;28;20537;-62
2023/11/06 02:17:18;;;;;;;66.97;17.52;;;23.80;41.30;;;;;;4972218;28;20065;-64
2023/11/06 02:19:45;;;;;;;65.07;15.90;;;23.80;42.60;;;;;;4970062;28;20437;-63
2023/11/06 02:22:14;;;;;;;56.38;15.68;;;23.70;41.90;;;;;;4973223;28;20069;-66
2023/11/06 02:24:41;;;;;;;73.70;15.80;;;23.60;41.90;;;;;;4974789;28;20551;-64
2023/11/06 02:27:08;;;;;;;72.05;17.33;;;23.60;42.60;;;;;;4974445;28;20149;-62
2023/11/06 02:29:38;;;;;;;51.70;15.57;;;23.50;42.10;;;;;;4973448;28;20077;-61
2023/11/06 02:32:04;;;;;;;77.40;16.63;;;23.50;42.40;;;;;;4975236;28;20071;-62
2023/11/06 02:34:31;;;;;;;53.80;16.33;;;23.50;43.30;;;;;;4972392;28;20059;-60
2023/11/06 02:36:57;;;;;;;72.57;18.95;;;23.40;42.90;;;;;;4971636;28;20062;-65
2023/11/06 02:39:24;;;;;;;78.53;18.42;;;23.40;42.80;;;;;;4973987;28;20069;-64
2023/11/06 02:41:50;;;;;;;65.32;18.77;;;23.30;42.90;;;;;;4973063;28;20130;-63
2023/11/06 02:44:17;;;;;;;80.78;19.00;;;23.30;43.60;;;;;;4972410;28;20554;-64
2023/11/06 02:46:43;;;;;;;78.70;18.83;;;23.30;43.50;;;;;;4975704;28;20464;-63
2023/11/06 02:49:10;;;;;;;69.18;18.75;;;23.20;43.20;;;;;;4972409;28;20059;-64
2023/11/06 02:51:37;;;;;;;74.45;18.95;;;23.20;43.70;;;;;;4971263;28;20074;-63
2023/11/06 02:54:05;;;;;;;75.30;16.75;;;23.20;43.70;;;;;;4970947;28;20054;-62
2023/11/06 02:56:36;;;;;;;63.22;17.55;;;23.10;43.70;;;;;;4975152;28;20619;-64
2023/11/06 02:59:07;;;;;;;69.90;18.77;;;23.10;43.60;;;;;;4971848;28;20112;-63
2023/11/06 03:01:34;;;;;;;69.07;15.77;;;23.00;43.60;;;;;;4973541;28;20061;-64
2023/11/06 03:04:00;;;;;;;81.68;17.88;;;23.00;43.70;;;;;;4973349;28;20077;-63
2023/11/06 03:06:28;;;;;;;56.17;17.23;;;22.90;43.50;;;;;;4973960;28;20103;-65
2023/11/06 03:08:55;;;;;;;62.38;17.33;;;22.90;43.70;;;;;;4973153;28;20456;-63
2023/11/06 03:11:23;;;;;;;65.70;17.13;;;22.90;44.50;;;;;;4972365;28;20063;-64
2023/11/06 03:13:49;;;;;;;73.80;18.60;;;22.80;44.40;;;;;;4972664;28;20051;-63
2023/11/06 03:16:19;;;;;;;67.22;19.08;;;22.70;44.70;;;;;;4972912;28;20062;-62
2023/11/06 03:18:46;;;;;;;66.22;16.55;;;22.70;45.30;;;;;;4975633;28;20056;-59
2023/11/06 03:21:12;;;;;;;62.15;15.98;;;22.60;45.00;;;;;;4971791;28;20080;-61
2023/11/06 03:23:39;;;;;;;62.53;18.13;;;22.50;45.40;;;;;;4969022;28;20388;-63
2023/11/06 03:26:05;;;;;;;78.15;18.35;;;22.50;45.50;;;;;;4972024;28;20059;-62
2023/11/06 03:28:32;;;;;;;72.55;18.88;;;22.50;45.50;;;;;;4973441;28;20060;-62
2023/11/06 03:30:59;;;;;;;69.97;18.67;;;22.40;46.00;;;;;;4971317;28;20161;-67
2023/11/06 03:33:26;;;;;;;63.67;19.38;;;22.40;45.50;;;;;;4971648;28;20082;-65
2023/11/06 03:35:52;;;;;;;86.18;20.30;;;22.30;45.40;;;;;;4970949;28;20525;-66
2023/11/06 03:38:19;;;;;;;82.57;21.33;;;22.30;45.70;;;;;;4970186;28;20061;-64
2023/11/06 03:40:45;;;;;;;83.68;20.27;;;22.30;45.90;;;;;;4970617;28;20602;-65
2023/11/06 03:43:12;;;;;;;73.15;19.77;;;22.30;46.50;;;;;;4971355;28;20085;-64
2023/11/06 03:45:38;;;;;;;77.20;20.45;;;22.20;46.20;;;;;;4970916;28;20103;-64
2023/11/06 03:48:05;;;;;;;75.50;21.10;;;22.10;45.90;;;;;;4971122;28;20052;-66
2023/11/06 03:50:31;;;;;;;82.50;20.83;;;22.10;46.30;;;;;;4970547;28;20092;-67
2023/11/06 03:52:58;;;;;;;69.30;21.67;;;22.10;46.60;;;;;;4971291;28;20060;-66
2023/11/06 03:55:26;;;;;;;75.45;22.33;;;22.00;46.60;;;;;;4969031;28;20403;-65
2023/11/06 03:57:52;;;;;;;56.17;20.33;;;22.00;46.60;;;;;;4970455;28;20120;-66
2023/11/06 04:00:19;;;;;;;72.35;21.20;;;22.00;46.20;;;;;;4970182;28;20129;-66
2023/11/06 04:02:46;;;;;;;68.18;22.20;;;21.90;46.30;;;;;;4970656;28;20065;-63
2023/11/06 04:05:12;;;;;;;63.67;20.42;;;21.90;46.10;;;;;;4970304;28;20065;-66
2023/11/06 04:07:39;;;;;;;75.57;20.35;;;21.90;45.70;;;;;;4970189;28;20057;-65
2023/11/06 04:10:06;;;;;;;68.07;20.70;;;21.80;45.20;;;;;;4970518;28;20586;-63
2023/11/06 04:12:32;;;;;;;62.95;20.63;;;21.80;45.60;;;;;;4969686;28;20090;-63
2023/11/06 04:14:59;;;;;;;67.68;20.90;;;21.70;45.70;;;;;;4969432;28;20068;-66
2023/11/06 04:17:26;;;;;;;67.65;20.25;;;21.70;46.20;;;;;;4969372;28;21763;-62
2023/11/06 04:19:53;;;;;;;65.03;20.70;;;21.70;46.00;;;;;;4970303;28;20137;-67
2023/11/06 04:22:20;;;;;;;71.22;20.65;;;21.60;46.10;;;;;;4969460;28;20396;-63
2023/11/06 04:24:46;;;;;;;83.25;22.77;;;21.60;47.20;;;;;;4969466;28;20582;-64
2023/11/06 04:27:12;;;;;;;65.65;22.02;;;21.60;47.20;;;;;;4969498;28;20057;-65
2023/11/06 04:29:39;;;;;;;65.57;21.30;;;21.50;46.90;;;;;;4969357;28;20112;-65
2023/11/06 04:32:05;;;;;;;59.92;19.17;;;21.50;47.00;;;;;;4969864;28;20080;-64
2023/11/06 04:34:32;;;;;;;71.38;18.92;;;21.50;46.70;;;;;;4969100;28;20070;-64
2023/11/06 04:36:59;;;;;;;66.38;19.15;;;21.40;47.20;;;;;;4970709;28;20477;-67
2023/11/06 04:39:25;;;;;;;65.85;18.52;;;21.40;47.60;;;;;;4969144;28;20105;-65
2023/11/06 04:41:52;;;;;;;59.20;21.35;;;21.30;47.90;;;;;;4969487;28;20456;-70
2023/11/06 04:44:18;;;;;;;66.38;21.25;;;21.30;48.00;;;;;;4969047;28;20054;-64
2023/11/06 04:46:44;;;;;;;58.90;19.70;;;21.30;47.90;;;;;;4970083;28;20063;-65
2023/11/06 04:49:11;;;;;;;57.88;18.55;;;21.20;48.50;;;;;;4968497;28;20066;-65
2023/11/06 04:51:37;;;;;;;61.00;17.38;;;21.20;49.10;;;;;;4970545;28;20058;-66
2023/11/06 04:54:04;;;;;;;66.20;19.05;;;21.10;48.70;;;;;;4969461;28;20065;-64
2023/11/06 04:56:31;;;;;;;55.90;17.10;;;21.00;48.60;;;;;;4968962;28;20064;-68
2023/11/06 04:58:57;;;;;;;63.05;19.95;;;21.00;48.60;;;;;;4968264;28;20068;-67
2023/11/06 05:01:24;;;;;;;73.78;19.00;;;21.00;48.70;;;;;;4969455;28;20075;-63
2023/11/06 05:03:50;;;;;;;66.85;18.83;;;20.90;48.90;;;;;;4969381;28;20133;-66
2023/11/06 05:06:17;;;;;;;67.53;18.92;;;20.80;48.60;;;;;;4967945;28;20080;-66
2023/11/06 05:08:43;;;;;;;67.53;18.48;;;20.70;49.10;;;;;;4970227;28;20107;-65
2023/11/06 05:11:12;;;;;;;61.97;19.60;;;20.70;49.20;;;;;;4970080;28;20546;-65
2023/11/06 05:13:39;;;;;;;74.25;19.70;;;20.60;48.70;;;;;;4969159;28;20073;-67
2023/11/06 05:16:06;;;;;;;65.85;18.90;;;20.60;48.70;;;;;;4969772;28;20091;-65
2023/11/06 05:18:32;;;;;;;77.80;20.83;;;20.60;48.90;;;;;;4969193;28;20581;-65
2023/11/06 05:20:59;;;;;;;86.13;37.75;;;20.60;49.20;;;;;;4969067;28;20074;-66
2023/11/06 05:23:25;;;;;;;67.78;21.52;;;20.60;49.40;;;;;;4969186;28;20110;-64
2023/11/06 05:25:51;;;;;;;86.38;21.23;;;20.50;49.20;;;;;;4971206;28;20090;-66
2023/11/06 05:28:18;;;;;;;92.63;22.02;;;20.50;49.10;;;;;;4972589;28;20067;-65
2023/11/06 05:30:44;;;;;;;80.05;21.45;;;20.50;48.90;;;;;;4974033;28;20092;-65
2023/11/06 05:33:11;;;;;;;78.95;26.88;;;20.50;49.40;;;;;;4973461;28;20064;-64
2023/11/06 05:35:37;;;;;;;125.90;32.20;;;20.40;49.70;;;;;;4973373;28;20206;-63
2023/11/06 05:38:04;;;;;;;120.53;28.27;;;20.40;49.70;;;;;;4972351;28;20098;-64
2023/11/06 05:40:30;;;;;;;103.35;27.50;;;20.40;50.40;;;;;;4973443;28;20080;-64
2023/11/06 05:42:57;;;;;;;123.47;28.33;;;20.30;50.20;;;;;;4973140;28;20067;-64
2023/11/06 05:45:23;;;;;;;116.03;29.23;;;20.30;49.90;;;;;;4973222;28;20128;-64
2023/11/06 05:47:51;;;;;;;95.10;28.67;;;20.20;49.90;;;;;;4973540;28;20192;-67
2023/11/06 05:50:17;;;;;;;115.70;30.45;;;20.20;50.50;;;;;;4973425;28;20114;-65
2023/11/06 05:52:45;;;;;;;134.57;33.35;;;20.20;50.80;;;;;;4973223;28;20066;-65
2023/11/06 05:55:12;;;;;;;102.43;33.50;;;20.10;50.70;;;;;;4972998;28;20607;-63
2023/11/06 05:57:38;;;;;;;120.18;31.98;;;20.00;51.00;;;;;;4972512;28;20143;-64
2023/11/06 06:00:06;;;;;;;134.57;32.53;;;20.00;50.50;;;;;;4973569;28;20077;-64
2023/11/06 06:02:32;;;;;;;101.47;31.55;;;20.00;50.60;;;;;;4972861;28;20067;-64
2023/11/06 06:04:59;;;;;;;129.75;33.50;;;19.90;50.70;;;;;;4972930;28;20056;-64
2023/11/06 06:07:25;;;;;;;115.53;31.42;;;20.00;50.80;;;;;;4970198;28;20528;-65
2023/11/06 06:09:52;;;;;;;123.45;31.65;;;20.00;50.80;;;;;;4973226;28;20056;-63
2023/11/06 06:12:18;;;;;;;115.22;30.98;;;20.00;50.80;;;;;;4972994;28;20062;-63
2023/11/06 06:14:45;;;;;;;130.48;32.17;;;20.00;51.00;;;;;;4973192;28;20551;-65
2023/11/06 06:17:11;;;;;;;110.07;31.60;;;20.00;51.10;;;;;;4971796;28;20106;-64
2023/11/06 06:19:37;;;;;;;114.90;31.27;;;19.90;51.40;;;;;;4972581;28;20113;-64
2023/11/06 06:22:06;;;;;;;120.55;32.88;;;19.80;51.40;;;;;;4972577;28;20058;-65
2023/11/06 06:24:32;;;;;;;119.80;33.13;;;19.80;51.60;;;;;;4971614;28;20059;-65
2023/11/06 06:26:59;;;;;;;125.15;32.78;;;19.70;51.40;;;;;;4971680;28;20060;-65
2023/11/06 06:29:25;;;;;;;98.82;30.30;;;19.80;51.50;;;;;;4970940;28;20063;-65
2023/11/06 06:31:53;;;;;;;144.25;42.63;;;19.70;51.40;;;;;;4972189;28;20427;-65
2023/11/06 06:34:20;;;;;;;139.88;44.03;;;19.70;51.80;;;;;;4971795;28;20647;-64
2023/11/06 06:36:47;;;;;;;127.50;42.58;;;19.70;52.00;;;;;;4971828;28;20151;-64
2023/11/06 06:39:13;;;;;;;168.65;80.88;;;19.70;52.00;;;;;;4971824;28;20065;-65
2023/11/06 06:41:40;;;;;;;138.63;38.78;;;19.70;52.50;;;;;;4972173;28;20092;-64
2023/11/06 06:44:06;;;;;;;130.77;35.08;;;19.70;52.30;;;;;;4971338;28;20148;-65
2023/11/06 06:46:33;;;;;;;122.97;33.15;;;19.70;52.30;;;;;;4971823;28;20519;-63
2023/11/06 06:48:59;;;;;;;115.07;31.80;;;19.60;52.50;;;;;;4970386;28;20061;-63
2023/11/06 06:51:26;;;;;;;115.75;33.22;;;19.50;52.50;;;;;;4971743;28;20149;-62
2023/11/06 06:53:52;;;;;;;140.57;36.83;;;19.60;52.50;;;;;;4971255;28;20059;-63
2023/11/06 06:56:19;;;;;;;101.75;35.40;;;19.60;52.40;;;;;;4971376;28;20552;-62
2023/11/06 06:58:45;;;;;;;159.02;61.35;;;19.50;53.00;;;;;;4971147;28;20123;-63
2023/11/06 07:01:13;;;;;;;151.48;59.58;;;19.50;52.70;;;;;;4971313;28;20472;-63
2023/11/06 07:03:39;;;;;;;165.40;62.83;;;19.40;52.70;;;;;;4971534;28;20091;-66
2023/11/06 07:06:14;;;;;;;140.02;53.08;;;19.30;52.50;;;;;;4971103;28;20077;-62
2023/11/06 07:08:41;;;;;;;135.50;46.67;;;19.40;52.90;;;;;;4968313;28;20078;-63
2023/11/06 07:11:08;;;;;;;145.55;45.35;;;19.40;53.50;;;;;;4971128;28;20552;-67
2023/11/06 07:13:35;;;;;;;145.07;42.13;;;19.30;53.30;;;;;;4969259;28;20074;-67
2023/11/06 07:16:02;;;;;;;120.45;36.00;;;19.30;53.60;;;;;;4971294;28;20055;-66
2023/11/06 07:18:29;;;;;;;120.15;33.45;;;19.30;52.90;;;;;;4970738;28;20074;-66
2023/11/06 07:20:55;;;;;;;124.45;32.97;;;19.30;52.70;;;;;;4970762;28;20103;-65
2023/11/06 07:23:24;;;;;;;105.32;30.35;;;19.30;52.60;;;;;;4970720;28;20125;-65
2023/11/06 07:25:50;;;;;;;120.05;33.47;;;19.30;52.60;;;;;;4969689;28;20315;-68
2023/11/06 07:28:17;;;;;;;105.80;31.38;;;19.20;52.70;;;;;;4970628;28;20058;-65
2023/11/06 07:30:43;;;;;;;124.28;30.85;;;19.20;52.70;;;;;;4971215;28;20087;-65
2023/11/06 07:33:10;;;;;;;135.23;32.92;;;19.20;53.30;;;;;;4969712;28;20078;-66
2023/11/06 07:35:36;;;;;;;112.50;31.95;;;19.20;53.00;;;;;;4970887;28;20052;-65
2023/11/06 07:38:03;;;;;;;110.18;30.75;;;19.20;53.00;;;;;;4971107;28;20047;-65
2023/11/06 07:40:30;;;;;;;115.32;31.45;;;19.20;53.10;;;;;;4970981;28;20154;-66
2023/11/06 07:42:57;;;;;;;131.07;31.90;;;19.20;53.10;;;;;;4970982;28;20601;-64
2023/11/06 07:45:23;;;;;;;99.38;29.95;;;19.10;53.60;;;;;;4970379;28;20078;-66
2023/11/06 07:47:50;;;;;;;115.85;30.42;;;19.10;54.30;;;;;;4970901;28;20052;-68
2023/11/06 07:50:18;;;;;;;100.05;29.77;;;19.00;53.80;;;;;;4969658;28;20102;-67
2023/11/06 07:52:44;;;;;;;123.18;31.13;;;19.00;53.70;;;;;;4971463;28;20191;-65
2023/11/06 07:55:11;;;;;;;118.40;30.95;;;18.90;53.90;;;;;;4970926;28;20055;-65
2023/11/06 07:57:39;;;;;;;105.80;31.63;;;18.90;54.10;;;;;;4970843;28;20531;-66
2023/11/06 08:00:06;;;;;;;108.50;31.02;;;18.90;54.20;;;;;;4971275;28;20072;-64
2023/11/06 08:02:34;;;;;;;126.55;32.92;;;18.90;54.60;;;;;;4969291;28;20095;-65
2023/11/06 08:05:02;;;;;;;101.63;30.27;;;18.80;54.80;;;;;;4969213;28;20448;-65
2023/11/06 08:07:28;;;;;;;105.50;32.15;;;18.80;54.90;;;;;;4968913;28;20465;-67
2023/11/06 08:09:55;;;;;;;115.75;30.67;;;18.80;54.40;;;;;;4970656;28;20102;-64
2023/11/06 08:12:21;;;;;;;120.38;32.63;;;18.70;55.50;;;;;;4969943;28;20059;-65
2023/11/06 08:14:48;;;;;;;122.05;32.03;;;18.70;55.10;;;;;;4970798;28;20460;-65
2023/11/06 08:17:14;;;;;;;113.57;31.70;;;18.70;54.90;;;;;;4969416;28;20114;-64
2023/11/06 08:19:41;;;;;;;103.00;31.15;;;18.70;55.50;;;;;;4968789;28;20501;-65
2023/11/06 08:22:09;;;;;;;128.98;35.58;;;18.70;55.50;;;;;;4970085;28;20513;-65
2023/11/06 08:24:38;;;;;;;125.20;34.20;;;18.60;55.10;;;;;;4970183;28;20155;-64
2023/11/06 08:27:06;;;;;;;110.30;33.97;;;18.60;55.80;;;;;;4970514;28;20048;-65
2023/11/06 08:29:33;;;;;;;125.30;33.83;;;18.50;55.60;;;;;;4970261;28;20533;-65
2023/11/06 08:32:01;;;;;;;107.78;33.00;;;18.50;56.00;;;;;;4969930;28;20070;-65
2023/11/06 08:34:27;;;;;;;110.25;34.28;;;18.40;55.60;;;;;;4970639;28;21270;-64
2023/11/06 08:36:55;;;;;;;119.85;33.40;;;18.40;55.50;;;;;;4969783;28;20119;-64
2023/11/06 08:39:22;;;;;;;119.60;34.20;;;18.40;55.50;;;;;;4970684;28;20060;-65
2023/11/06 08:41:48;;;;;;;114.28;33.05;;;18.40;55.70;;;;;;4970682;28;20173;-64
2023/11/06 08:44:15;;;;;;;109.97;34.67;;;18.40;56.10;;;;;;4969200;28;20091;-63
2023/11/06 08:46:43;;;;;;;113.25;33.60;;;18.30;55.90;;;;;;4969716;28;20057;-64
2023/11/06 08:49:09;;;;;;;89.13;30.48;;;18.30;56.00;;;;;;4969932;28;20056;-64
2023/11/06 08:51:36;;;;;;;101.70;32.50;;;18.30;56.30;;;;;;4970185;28;20519;-65
2023/11/06 08:54:03;;;;;;;130.60;34.33;;;18.30;56.80;;;;;;4970020;28;20098;-64
2023/11/06 08:56:30;;;;;;;142.25;52.45;;;18.30;55.80;;;;;;4969336;28;20585;-65
2023/11/06 08:58:59;;;;;;;126.80;34.78;;;18.30;55.90;;;;;;4970479;28;20067;-63
2023/11/06 09:01:25;;;;;;;119.50;33.55;;;18.20;56.00;;;;;;4972903;28;20095;-64
2023/11/06 09:03:53;;;;;;;128.95;35.83;;;18.20;56.30;;;;;;4969664;28;20060;-65
2023/11/06 09:06:21;;;;;;;115.88;33.47;;;18.20;56.20;;;;;;4969921;28;20069;-64
2023/11/06 09:08:48;;;;;;;119.75;34.13;;;18.20;56.20;;;;;;4970123;28;20509;-65
2023/11/06 09:11:14;;;;;;;115.38;36.35;;;18.20;56.40;;;;;;4970317;28;20088;-67
2023/11/06 09:13:41;;;;;;;118.70;35.47;;;18.10;56.50;;;;;;4969108;28;20068;-64
2023/11/06 09:16:09;;;;;;;121.60;35.80;;;18.10;56.90;;;;;;4969896;28;20082;-65
2023/11/06 09:18:38;;;;;;;133.18;35.42;;;18.10;56.90;;;;;;4970401;28;20056;-64
2023/11/06 09:21:07;;;;;;;123.53;35.05;;;18.10;56.60;;;;;;4969533;28;20068;-65
2023/11/06 09:23:34;;;;;;;113.00;35.83;;;18.10;56.60;;;;;;4968703;28;20617;-65
2023/11/06 09:26:00;;;;;;;123.03;35.20;;;18.00;56.70;;;;;;4971313;28;20088;-64
2023/11/06 09:28:27;;;;;;;109.90;35.15;;;18.00;57.20;;;;;;4968553;28;20063;-67
2023/11/06 09:30:53;;;;;;;117.40;35.50;;;18.00;57.30;;;;;;4969576;28;20072;-65
2023/11/06 09:33:20;;;;;;;117.30;35.65;;;18.00;58.20;;;;;;4969086;28;20463;-64
2023/11/06 09:35:46;;;;;;;127.85;37.20;;;17.90;57.90;;;;;;4969627;28;20547;-63
2023/11/06 09:38:14;;;;;;;107.00;33.83;;;17.90;57.90;;;;;;4970108;28;20147;-65
2023/11/06 09:40:40;;;;;;;109.00;34.83;;;17.90;58.50;;;;;;4970430;28;20084;-64
2023/11/06 09:43:07;;;;;;;116.32;37.10;;;17.90;58.70;;;;;;4969269;28;20591;-65
2023/11/06 09:45:33;;;;;;;125.10;35.60;;;17.80;58.80;;;;;;4968545;28;20146;-67
2023/11/06 09:48:04;;;;;;;126.07;37.75;;;17.80;58.80;;;;;;4969515;28;20084;-63
2023/11/06 09:50:31;;;;;;;108.22;35.38;;;17.80;58.60;;;;;;4969604;28;20058;-64
2023/11/06 09:52:58;;;;;;;120.45;35.92;;;17.70;59.20;;;;;;4969609;28;20061;-65
2023/11/06 09:55:26;;;;;;;108.53;35.10;;;17.70;59.50;;;;;;4968693;28;20094;-64
2023/11/06 09:57:53;;;;;;;116.72;37.90;;;17.70;59.60;;;;;;4968288;28;20058;-65
2023/11/06 10:00:20;;;;;;;110.05;35.63;;;17.70;59.60;;;;;;4969401;28;20149;-65
2023/11/06 10:02:52;;;;;;;118.10;36.15;;;17.60;59.50;;;;;;4968827;28;20503;-65
2023/11/06 10:05:22;;;;;;;99.85;34.72;;;17.60;60.10;;;;;;4968044;28;20071;-65
2023/11/06 10:07:54;;;;;;;133.02;37.55;;;17.60;60.00;;;;;;4969453;28;20059;-65
2023/11/06 10:10:27;;;;;;;116.90;36.95;;;17.60;59.70;;;;;;4969472;28;20576;-64
2023/11/06 10:13:13;;;;;;;105.97;38.33;;;17.60;59.40;;;;;;4972319;28;20059;-66
2023/11/06 10:15:40;;;;;;;125.63;38.15;;;17.50;59.50;;;;;;4973170;28;20536;-65
2023/11/06 10:18:18;;;;;;;123.05;38.08;;;17.50;59.70;;;;;;4972144;28;20063;-65
2023/11/06 10:20:52;;;;;;;144.88;44.20;;;17.50;59.50;;;;;;4971232;28;20072;-63
2023/11/06 10:23:25;;;;;;;155.43;42.88;;;17.40;59.50;;;;;;4971808;28;20048;-65
2023/11/06 10:25:57;;;;;;;143.07;47.20;;;17.40;59.80;;;;;;4970721;28;20051;-64
2023/11/06 10:28:24;;;;;;;160.95;46.58;;;17.40;60.20;;;;;;4972707;28;20165;-65
2023/11/06 10:30:52;;;;;;;151.18;45.95;;;17.30;59.80;;;;;;4971238;28;20086;-65
2023/11/06 10:33:20;;;;;;;141.52;46.25;;;17.30;60.10;;;;;;4971716;28;20055;-66
2023/11/06 10:35:46;;;;;;;160.48;49.35;;;17.20;60.70;;;;;;4973347;28;20517;-66
2023/11/06 10:38:28;;;;;;;178.43;51.08;;;17.30;61.40;;;;;;4970797;28;20160;-66
2023/11/06 10:40:56;;;;;;;178.30;47.45;;;17.30;60.70;;;;;;4971931;28;20064;-65
2023/11/06 10:43:23;;;;;;;179.20;48.10;;;17.20;60.00;;;;;;4972001;28;20137;-64
2023/11/06 10:45:50;;;;;;;164.52;48.22;;;17.30;60.40;;;;;;4972732;28;20052;-65
2023/11/06 10:48:50;;;;;;;150.35;47.33;;;17.20;59.90;;;;;;4972864;28;20129;-64
2023/11/06 10:51:17;;;;;;;163.82;46.80;;;17.30;60.10;;;;;;4971958;28;20582;-64
2023/11/06 10:53:45;;;;;;;181.80;46.97;;;17.20;59.80;;;;;;4972313;28;20415;-65
2023/11/06 10:56:13;;;;;;;165.18;46.95;;;17.30;59.90;;;;;;4972022;28;20057;-66
2023/11/06 10:58:42;;;;;;;176.32;48.05;;;17.20;59.90;;;;;;4971748;28;20576;-64
2023/11/06 11:01:09;;;;;;;170.82;47.58;;;17.30;59.90;;;;;;4971695;28;20072;-65
2023/11/06 11:03:36;;;;;;;151.90;46.92;;;17.20;59.50;;;;;;4971847;28;20064;-64
2023/11/06 11:06:05;;;;;;;180.95;48.33;;;17.20;60.30;;;;;;4971462;28;20070;-65
2023/11/06 11:08:33;;;;;;;153.90;47.88;;;17.20;60.30;;;;;;4972930;28;20063;-65
2023/11/06 11:11:00;;;;;;;172.57;50.72;;;17.20;59.90;;;;;;4971925;28;20055;-64
2023/11/06 11:13:27;;;;;;;173.02;49.60;;;17.10;59.90;;;;;;4971890;28;20056;-64
2023/11/06 11:15:53;;;;;;;166.30;49.78;;;17.10;59.80;;;;;;4971564;28;20056;-64
2023/11/06 11:18:29;;;;;;;170.30;49.00;;;17.10;60.00;;;;;;4971928;28;20095;-64
2023/11/06 11:21:01;;;;;;;165.55;50.63;;;17.10;60.40;;;;;;4971645;28;20582;-63
2023/11/06 11:23:39;;;;;;;175.77;49.78;;;17.10;60.50;;;;;;4971310;28;20137;-64
2023/11/06 11:26:09;;;;;;;184.43;54.75;;;17.20;60.70;;;;;;4971663;28;20076;-65
2023/11/06 11:28:54;;;;;;;170.85;52.30;;;17.10;60.20;;;;;;4971862;28;20048;-65
2023/11/06 11:31:34;;;;;;;172.38;54.60;;;17.10;60.40;;;;;;4971809;28;20104;-66
2023/11/06 11:34:01;;;;;;;190.35;55.15;;;17.00;60.40;;;;;;4972415;28;20053;-65
2023/11/06 11:36:31;;;;;;;197.30;56.25;;;17.00;61.50;;;;;;4971390;28;20063;-65
2023/11/06 11:39:04;;;;;;;186.93;56.97;;;17.00;61.70;;;;;;4969075;28;20571;-66
2023/11/06 11:41:30;;;;;;;174.73;53.78;;;17.00;61.30;;;;;;4969824;28;20082;-66
2023/11/06 11:44:11;;;;;;;192.80;55.15;;;17.00;61.30;;;;;;4970792;28;20063;-65
2023/11/06 11:46:47;;;;;;;203.13;58.17;;;17.00;61.20;;;;;;4971082;28;20050;-64
2023/11/06 11:49:40;;;;;;;186.65;53.92;;;16.90;61.80;;;;;;4969846;28;20109;-66
2023/11/06 11:52:08;;;;;;;183.35;54.25;;;16.80;61.10;;;;;;4970554;28;20109;-64
2023/11/06 11:54:39;;;;;;;162.05;52.00;;;16.80;61.00;;;;;;4970923;28;20062;-65
2023/11/06 11:57:07;;;;;;;173.68;52.00;;;16.80;60.90;;;;;;4970475;28;20059;-64
2023/11/06 11:59:49;;;;;;;170.52;52.70;;;16.70;60.80;;;;;;4970694;28;20048;-64
2023/11/06 12:02:34;;;;;;;166.52;54.10;;;16.60;60.90;;;;;;4970470;28;20058;-63
2023/11/06 12:05:13;;;;;;;142.48;50.72;;;16.50;61.60;;;;;;4970195;28;20049;-64
2023/11/06 12:07:43;;;;;;;152.25;51.58;;;16.60;60.50;;;;;;4970817;28;20062;-65
2023/11/06 12:10:10;;;;;;;172.27;51.17;;;16.70;60.60;;;;;;4970879;28;20071;-66
2023/11/06 12:12:39;;;;;;;163.30;51.33;;;16.70;60.90;;;;;;4970025;28;20054;-66
2023/11/06 12:15:12;;;;;;;174.23;51.53;;;16.70;61.00;;;;;;4970784;28;20427;-65
2023/11/06 12:17:39;;;;;;;171.75;54.13;;;16.70;60.20;;;;;;4970331;28;20052;-65
2023/11/06 12:20:13;;;;;;;156.85;49.67;;;16.60;60.10;;;;;;4969046;28;20128;-66
2023/11/06 12:22:50;;;;;;;151.40;51.53;;;16.50;61.20;;;;;;4970268;28;20059;-64
2023/11/06 12:25:37;;;;;;;151.73;52.97;;;16.50;61.30;;;;;;4970594;28;20049;-64
2023/11/06 12:28:13;;;;;;;162.00;53.15;;;16.60;61.30;;;;;;4969305;28;20064;-64